• user warning: Incorrect key file for table './wfLSmblodge/cache.MYI'; try to repair it query: DELETE FROM cache WHERE cid = 'variables' in /var/www/whitefish-lodge.com/includes/cache.inc on line 178.
  • user warning: Incorrect key file for table './wfLSmblodge/weather.MYI'; try to repair it query: DELETE FROM weather WHERE icao='KPWC' in /var/www/whitefish-lodge.com/sites/all/modules/weather/weather.module on line 2107.
  • user warning: Incorrect key file for table './wfLSmblodge/weather.MYI'; try to repair it query: INSERT INTO weather (icao, next_update_on, metar_raw) VALUES ('KPWC', 1490380500, '2017/03/24 17:33\nKPWC 241733Z AUTO 35010KT 10SM OVC019 03/00 A3013 RMK AO2\n') in /var/www/whitefish-lodge.com/sites/all/modules/weather/weather.module on line 2114.

As Seen On